^^

Nearby METAR Reports

 

KBJC - Broomfield/Jeffc, Colorado, USA
Distance from station: ESE 4mi, 6km
Updated: 02/27/2020 4:45pm
Mostly cloudy
Mostly cloudy
 Wind from NW
Wind: NW 17 mph , 28 km/h, Gust: 23 mph , 37 km/h
Temperature: 48°F , 9°C
Wind Chill: 42°F , 6°C
Dew Point: 3°F , -16°C
Humidity: 15%
Barometer: 1022.7 hPa
Clouds: Mostly cloudy
Visibility: 70 miles , 112 km
Cloud details: Few Clouds 9000 ft
Mostly cloudy 22000 ft
2020/02/27 23:45 KBJC 272345Z 32015G20KT 70SM FEW090 BKN220 09/M16 A3020
KBDU - Boulder Muni, Colorado, USA
Distance from station: NNW 8mi, 13km
Updated: 02/27/2020 4:30pm
Clear
Clear
 Wind from NNW
Wind: NNW 13 mph , 20 km/h, Gust: 30 mph , 48 km/h
Temperature: 46°F , 8°C
Wind Chill: 40°F , 4°C
Dew Point: 7°F , -14°C
Humidity: 20%
Barometer: 1022.7 hPa
Clouds: Clear
Visibility: 10 miles , 16 km
2020/02/27 23:30 KBDU 272330Z AUTO 33011G26KT 10SM CLR 08/M14 A3020 RMK AO2
 
KEIK - Erie Muni, Colorado, USA
Distance from station: NE 8mi, 14km
Updated: 02/27/2020 4:41pm
Mostly cloudy
Mostly cloudy
 Wind from WNW
Wind: WNW 24 mph , 39 km/h, Gust: 31 mph , 50 km/h
Temperature: 48°F , 9°C
Wind Chill: 40°F , 4°C
Dew Point: 7°F , -14°C
Humidity: 18%
Barometer: 1024.4 hPa
Clouds: Mostly cloudy
Visibility: 10 miles , 16 km
Cloud details: Mostly cloudy 12000 ft
2020/02/27 23:41 KEIK 272341Z AUTO 29021G27KT 10SM BKN120 09/M14 A3025 RMK AO2 T00901143
KLMO - Longmont/Vbrand, Colorado, USA
Distance from station: N 17mi, 27km
Updated: 02/27/2020 4:35pm
Partly cloudy
Partly cloudy
 Wind from W
Wind: W 15 mph , 24 km/h, Gust: 24 mph , 39 km/h
Temperature: 50°F , 10°C
Wind Chill: 45°F , 7°C
Dew Point: 12°F , -11°C
Humidity: 22%
Barometer: 1023 hPa
Clouds: Partly cloudy
Visibility: 10 miles , 16 km
Cloud details: Partly cloudy 12000 ft
2020/02/27 23:35 KLMO 272335Z AUTO 28013G21KT 10SM SCT120 10/M11 A3021 RMK AO2 T01011107
 
KBKF - Buckley Angb/Den, Colorado, USA
Distance from station: ESE 26mi, 42km
Updated: 02/27/2020 3:58pm
Mostly cloudy
Mostly cloudy
 Wind from NW
Wind: NW 22 mph , 35 km/h, Gust: 29 mph , 46 km/h
Temperature: 45°F , 7°C
Wind Chill: 37°F , 3°C
Dew Point: 12°F , -11°C
Humidity: 27%
Barometer: 1022.4 hPa
Clouds: Mostly cloudy
Visibility: 10 miles , 16 km
Cloud details: Few Clouds 9000 ft
Mostly cloudy 20000 ft
2020/02/27 22:58 KBKF 272258Z 31019G25KT 10SM FEW090 BKN200 07/M11 A3019 RMK AO2A SLP213 T00681109
KDEN - Denver (dia), Colorado, USA
Distance from station: E 27mi, 44km
Updated: 02/27/2020 3:53pm
Mostly cloudy
Mostly cloudy
 Wind from N
Wind: N 9 mph , 15 km/h
Temperature: 46°F , 8°C
Wind Chill: 41°F , 5°C
Dew Point: 16°F , -9°C
Humidity: 29%
Barometer: 1022 hPa
Clouds: Mostly cloudy
Visibility: 10 miles , 16 km
Cloud details: Few Clouds 9000 ft
Mostly cloudy 15000 ft
Mostly cloudy 20000 ft
2020/02/27 22:53 KDEN 272253Z 36008KT 10SM FEW090 BKN150 BKN200 08/M09 A3018 RMK AO2 SLP208 T00831094
 
KAPA - Denver/Arapahoe, Colorado, USA
Distance from station: SE 30mi, 48km
Updated: 02/27/2020 3:53pm
Mostly cloudy
Mostly cloudy
 Wind from NNW
Wind: NNW 23 mph , 37 km/h, Gust: 37 mph , 59 km/h
Temperature: 46°F , 8°C
Wind Chill: 38°F , 3°C
Dew Point: 12°F , -11°C
Humidity: 25%
Barometer: 1022 hPa
Clouds: Mostly cloudy
Visibility: 10 miles , 16 km
Cloud details: Few Clouds 9000 ft
Partly cloudy 13000 ft
Mostly cloudy 20000 ft
2020/02/27 22:53 KAPA 272253Z 33020G32KT 10SM FEW090 SCT130 BKN200 08/M11 A3018 RMK AO2 PK WND 32032/2245 SLP227 T00781111
K0CO - Berthoud Pass, Colorado, USA
Distance from station: WSW 33mi, 54km
Updated: 02/24/2020 11:00am
NOT Current
Overcast
Overcast
 
Temperature: -2°F , -19°C
Dew Point: -15°F , -26°C
Humidity: 54%
Barometer: 1005.4 hPa
Clouds: Overcast
Cloud details: Mostly cloudy 500 ft
Mostly cloudy 1000 ft
Overcast 1300 ft
2020/02/24 18:00 K0CO 241800Z AUTO BKN005 BKN010 OVC013 M19/M26 A2969 RMK AO2 LTG DSNT N PWINO
 
KFTG - Denver F. Range, Colorado, USA
Distance from station: ESE 34mi, 54km
Updated: 01/29/2020 9:55pm
NOT Current
Overcast
Overcast
 Wind from W
Wind: W 7 mph , 11 km/h
Temperature: 30°F , -1°C
Wind Chill: 23°F , -5°C
Dew Point: 28°F , -2°C
Humidity: 93%
Barometer: 1017.9 hPa
Clouds: Overcast
Visibility: 10 miles , 16 km
Cloud details: Partly cloudy 1300 ft
Mostly cloudy 2300 ft
Overcast 6000 ft
2020/01/30 04:55 KFTG 300455Z AUTO 26006KT 10SM SCT013 BKN023 OVC060 M01/M02 A3006 RMK AO2 T10111023
KFNL - Ft Collins/Loveland, Colorado, USA
Distance from station: N 37mi, 59km
Updated: 02/27/2020 3:56pm
Few Clouds
Few Clouds
 Wind from NW
Wind: NW 18 mph , 30 km/h, Gust: 25 mph , 41 km/h
Temperature: 48°F , 9°C
Wind Chill: 41°F , 5°C
Dew Point: 12°F , -11°C
Humidity: 23%
Barometer: 1022.4 hPa
Clouds: Few Clouds
Visibility: 10 miles , 16 km
Cloud details: Few Clouds 11000 ft
2020/02/27 22:56 KFNL 272256Z AUTO 31016G22KT 10SM FEW110 09/M11 A3019 RMK AO2 PK WND 33030/2201 SLP228 T00891111
 
KCYS - Cheyenne, Wyoming, USA
Distance from station: NNE 95mi, 153km
Updated: 02/27/2020 3:53pm
Clear
Clear
 Wind from NW
Wind: NW 16 mph , 26 km/h, Gust: 30 mph , 48 km/h
Temperature: 37°F , 3°C
Wind Chill: 28°F , -2°C
Dew Point: 12°F , -11°C
Humidity: 35%
Barometer: 1022 hPa
Clouds: Clear
Visibility: 10 miles , 16 km
2020/02/27 22:53 KCYS 272253Z 32014G26KT 10SM CLR 03/M11 A3018 RMK AO2 PK WND 31032/2231 SLP235 T00281106
KCPR - Casper, Wyoming, USA
Distance from station: NNW 272mi, 438km
Updated: 02/27/2020 3:53pm
Clear
Clear
 Wind from SW
Wind: SW 16 mph , 26 km/h
Temperature: 36°F , 2°C
Wind Chill: 26°F , -3°C
Dew Point: 21°F , -6°C
Humidity: 56%
Barometer: 1022.7 hPa
Clouds: Clear
Visibility: 10 miles , 16 km
2020/02/27 22:53 KCPR 272253Z 22014KT 10SM CLR 02/M06 A3020 RMK AO2 SLP254 T00171056
 
KGNB - Granby/Grand Co, Colorado, USA
Distance from station: WNW 42mi, 67km
Updated: 02/27/2020 4:40pm
Overcast
Overcast
 Wind from W
Wind: W 10 mph , 17 km/h, Gust: 20 mph , 31 km/h
Temperature: 28°F , -2°C
Wind Chill: 19°F , -7°C
Dew Point: 10°F , -12°C
Humidity: 47%
Barometer: 1025.7 hPa
Clouds: Overcast
Visibility: 10 miles , 16 km
Cloud details: Overcast 9000 ft
2020/02/27 23:40 KGNB 272340Z AUTO 28009G17KT 10SM OVC090 M02/M12 A3029 RMK AO2 T10171122
KGXY - Greeley/Weld, Colorado, USA
Distance from station: NE 44mi, 71km
Updated: 02/27/2020 3:56pm
Partly cloudy
Partly cloudy
 Wind from NNW
Wind: NNW 23 mph , 37 km/h
Temperature: 48°F , 9°C
Wind Chill: 40°F , 4°C
Dew Point: 9°F , -13°C
Humidity: 20%
Barometer: 1022 hPa
Clouds: Partly cloudy
Visibility: 10 miles , 16 km
Cloud details: Partly cloudy 10000 ft
2020/02/27 22:56 KGXY 272256Z AUTO 34020KT 10SM SCT100 09/M13 A3018 RMK AO2 PK WND 33031/2234 SLP242 T00891128
 
KMNH - Monument/Elbert, Colorado, USA
Distance from station: SSE 56mi, 90km
Updated: 02/27/2020 4:30pm
Mostly cloudy
Mostly cloudy
 Wind from NNE
Wind: NNE 6 mph , 9 km/h
Temperature: 32°F , 0°C
Wind Chill: 26°F , -3°C
Dew Point: 18°F , -8°C
Humidity: 55%
Barometer: 1023 hPa
Clouds: Mostly cloudy
Visibility: 10 miles , 16 km
Cloud details: Mostly cloudy 10000 ft
2020/02/27 23:30 KMNH 272330Z AUTO 02005KT 10SM BKN100 00/M08 A3021 RMK AO2